sensor_id;sensor_type;location;lat;lon;timestamp;pressure;altitude;pressure_sealevel;temperature;humidity
7768;BME280;3928;42.626;23.382;2023-06-22T00:00:47;94629.03;;;23.49;65.38
7768;BME280;3928;42.626;23.382;2023-06-22T00:03:14;94629.34;;;23.59;63.89
7768;BME280;3928;42.626;23.382;2023-06-22T00:05:42;94625.47;;;23.65;64.23
7768;BME280;3928;42.626;23.382;2023-06-22T00:08:09;94617.88;;;23.74;64.24
7768;BME280;3928;42.626;23.382;2023-06-22T00:10:36;94624.13;;;23.86;63.84
7768;BME280;3928;42.626;23.382;2023-06-22T00:13:03;94616.47;;;23.83;63.89
7768;BME280;3928;42.626;23.382;2023-06-22T00:15:30;94627.75;;;23.98;63.67
7768;BME280;3928;42.626;23.382;2023-06-22T00:17:57;94618.09;;;23.98;62.68
7768;BME280;3928;42.626;23.382;2023-06-22T00:20:24;94618.63;;;24.03;62.68
7768;BME280;3928;42.626;23.382;2023-06-22T00:22:54;94604.41;;;24.07;62.28
7768;BME280;3928;42.626;23.382;2023-06-22T00:25:22;94605.88;;;24.11;61.86
7768;BME280;3928;42.626;23.382;2023-06-22T00:27:49;94607.28;;;24.17;62.49
7768;BME280;3928;42.626;23.382;2023-06-22T00:30:16;94606.25;;;24.19;61.95
7768;BME280;3928;42.626;23.382;2023-06-22T00:32:44;94597.53;;;24.19;60.24
7768;BME280;3928;42.626;23.382;2023-06-22T00:35:12;94584.75;;;24.00;61.59
7768;BME280;3928;42.626;23.382;2023-06-22T00:37:39;94586.53;;;24.00;61.58
7768;BME280;3928;42.626;23.382;2023-06-22T00:40:10;94562.66;;;23.77;60.41
7768;BME280;3928;42.626;23.382;2023-06-22T00:42:37;94586.34;;;24.03;61.14
7768;BME280;3928;42.626;23.382;2023-06-22T00:45:06;94584.88;;;23.99;59.07
7768;BME280;3928;42.626;23.382;2023-06-22T00:47:34;94563.78;;;23.73;60.63
7768;BME280;3928;42.626;23.382;2023-06-22T00:50:01;94588.88;;;23.63;61.69
7768;BME280;3928;42.626;23.382;2023-06-22T00:52:29;94589.47;;;23.25;64.61
7768;BME280;3928;42.626;23.382;2023-06-22T00:54:59;94593.88;;;23.11;65.87
7768;BME280;3928;42.626;23.382;2023-06-22T00:57:29;94593.31;;;23.05;66.50
7768;BME280;3928;42.626;23.382;2023-06-22T00:59:56;94587.72;;;23.12;66.71
7768;BME280;3928;42.626;23.382;2023-06-22T01:02:23;94582.94;;;22.90;67.68
7768;BME280;3928;42.626;23.382;2023-06-22T01:04:50;94588.16;;;22.90;67.76
7768;BME280;3928;42.626;23.382;2023-06-22T01:07:24;94581.13;;;22.46;70.14
7768;BME280;3928;42.626;23.382;2023-06-22T01:10:00;94596.38;;;22.54;70.24
7768;BME280;3928;42.626;23.382;2023-06-22T01:12:34;94588.31;;;22.42;71.36
7768;BME280;3928;42.626;23.382;2023-06-22T01:15:08;94585.38;;;22.03;73.89
7768;BME280;3928;42.626;23.382;2023-06-22T01:17:39;94590.44;;;21.74;76.09
7768;BME280;3928;42.626;23.382;2023-06-22T01:20:08;94579.81;;;21.62;76.87
7768;BME280;3928;42.626;23.382;2023-06-22T01:22:45;94598.53;;;21.70;77.04
7768;BME280;3928;42.626;23.382;2023-06-22T01:25:20;94594.00;;;21.57;77.81
7768;BME280;3928;42.626;23.382;2023-06-22T01:27:56;94600.63;;;21.47;78.84
7768;BME280;3928;42.626;23.382;2023-06-22T01:30:28;94598.28;;;21.58;78.57
7768;BME280;3928;42.626;23.382;2023-06-22T01:32:57;94596.84;;;21.37;79.51
7768;BME280;3928;42.626;23.382;2023-06-22T01:35:25;94610.81;;;21.52;79.53
7768;BME280;3928;42.626;23.382;2023-06-22T01:37:52;94613.13;;;21.58;79.25
7768;BME280;3928;42.626;23.382;2023-06-22T01:40:19;94603.06;;;21.50;79.87
7768;BME280;3928;42.626;23.382;2023-06-22T01:42:47;94601.56;;;21.46;80.51
7768;BME280;3928;42.626;23.382;2023-06-22T01:45:14;94606.53;;;21.35;81.28
7768;BME280;3928;42.626;23.382;2023-06-22T01:47:44;94608.72;;;21.10;82.66
7768;BME280;3928;42.626;23.382;2023-06-22T01:50:12;94614.84;;;21.26;82.20
7768;BME280;3928;42.626;23.382;2023-06-22T01:52:39;94601.00;;;21.24;81.91
7768;BME280;3928;42.626;23.382;2023-06-22T01:55:06;94609.44;;;21.29;81.71
7768;BME280;3928;42.626;23.382;2023-06-22T01:57:33;94623.34;;;21.29;81.47
7768;BME280;3928;42.626;23.382;2023-06-22T02:00:02;94614.53;;;21.32;80.82
7768;BME280;3928;42.626;23.382;2023-06-22T02:02:33;94615.94;;;21.38;79.07
7768;BME280;3928;42.626;23.382;2023-06-22T02:05:06;94617.59;;;21.56;78.80
7768;BME280;3928;42.626;23.382;2023-06-22T02:07:41;94622.31;;;21.81;78.34
7768;BME280;3928;42.626;23.382;2023-06-22T02:10:09;94626.84;;;22.09;76.95
7768;BME280;3928;42.626;23.382;2023-06-22T02:12:39;94616.44;;;22.23;74.00
7768;BME280;3928;42.626;23.382;2023-06-22T02:15:09;94628.41;;;22.43;73.35
7768;BME280;3928;42.626;23.382;2023-06-22T02:17:38;94633.00;;;22.54;70.15
7768;BME280;3928;42.626;23.382;2023-06-22T02:20:12;94614.06;;;22.64;71.30
7768;BME280;3928;42.626;23.382;2023-06-22T02:22:39;94612.41;;;22.77;71.48
7768;BME280;3928;42.626;23.382;2023-06-22T02:25:06;94619.75;;;22.87;70.15
7768;BME280;3928;42.626;23.382;2023-06-22T02:27:34;94619.38;;;22.93;69.75
7768;BME280;3928;42.626;23.382;2023-06-22T02:30:00;94622.09;;;22.91;68.52
7768;BME280;3928;42.626;23.382;2023-06-22T02:32:27;94614.31;;;22.60;69.99
7768;BME280;3928;42.626;23.382;2023-06-22T02:34:54;94614.16;;;22.33;71.64
7768;BME280;3928;42.626;23.382;2023-06-22T02:37:22;94601.56;;;22.09;72.96
7768;BME280;3928;42.626;23.382;2023-06-22T02:39:50;94606.19;;;22.04;73.21
7768;BME280;3928;42.626;23.382;2023-06-22T02:42:17;94610.06;;;21.97;73.65
7768;BME280;3928;42.626;23.382;2023-06-22T02:44:46;94614.25;;;22.00;73.09
7768;BME280;3928;42.626;23.382;2023-06-22T02:47:12;94601.47;;;21.95;72.22
7768;BME280;3928;42.626;23.382;2023-06-22T02:49:39;94614.53;;;22.11;71.70
7768;BME280;3928;42.626;23.382;2023-06-22T02:52:07;94616.34;;;22.25;72.48
7768;BME280;3928;42.626;23.382;2023-06-22T02:54:35;94619.88;;;22.39;72.67
7768;BME280;3928;42.626;23.382;2023-06-22T02:57:02;94625.06;;;22.55;71.52
7768;BME280;3928;42.626;23.382;2023-06-22T02:59:29;94629.41;;;22.70;70.38
7768;BME280;3928;42.626;23.382;2023-06-22T03:01:56;94629.19;;;22.89;69.48
7768;BME280;3928;42.626;23.382;2023-06-22T03:04:23;94630.25;;;23.01;68.68
7768;BME280;3928;42.626;23.382;2023-06-22T03:06:49;94627.81;;;23.12;68.63
7768;BME280;3928;42.626;23.382;2023-06-22T03:09:17;94627.16;;;23.23;67.44
7768;BME280;3928;42.626;23.382;2023-06-22T03:11:45;94630.97;;;23.31;66.29
7768;BME280;3928;42.626;23.382;2023-06-22T03:14:12;94625.28;;;23.39;65.60
7768;BME280;3928;42.626;23.382;2023-06-22T03:16:38;94628.56;;;23.43;65.81
7768;BME280;3928;42.626;23.382;2023-06-22T03:19:06;94636.97;;;23.48;65.44
7768;BME280;3928;42.626;23.382;2023-06-22T03:21:33;94641.47;;;23.46;64.98
7768;BME280;3928;42.626;23.382;2023-06-22T03:23:59;94647.72;;;23.43;65.68
7768;BME280;3928;42.626;23.382;2023-06-22T03:26:26;94655.13;;;23.22;66.51
7768;BME280;3928;42.626;23.382;2023-06-22T03:28:54;94652.47;;;22.94;68.22
7768;BME280;3928;42.626;23.382;2023-06-22T03:31:21;94648.19;;;22.63;70.12
7768;BME280;3928;42.626;23.382;2023-06-22T03:33:49;94652.91;;;22.56;70.39
7768;BME280;3928;42.626;23.382;2023-06-22T03:36:16;94655.13;;;22.48;71.05
7768;BME280;3928;42.626;23.382;2023-06-22T03:38:44;94663.50;;;22.39;71.67
7768;BME280;3928;42.626;23.382;2023-06-22T03:41:11;94659.13;;;22.24;72.49
7768;BME280;3928;42.626;23.382;2023-06-22T03:43:38;94651.13;;;22.11;73.56
7768;BME280;3928;42.626;23.382;2023-06-22T03:46:06;94657.94;;;22.13;73.54
7768;BME280;3928;42.626;23.382;2023-06-22T03:48:33;94660.56;;;22.13;73.91
7768;BME280;3928;42.626;23.382;2023-06-22T03:51:01;94665.78;;;22.13;74.67
7768;BME280;3928;42.626;23.382;2023-06-22T03:53:28;94665.28;;;22.23;75.25
7768;BME280;3928;42.626;23.382;2023-06-22T03:55:55;94669.06;;;22.33;74.70
7768;BME280;3928;42.626;23.382;2023-06-22T03:58:22;94662.97;;;22.48;74.80
7768;BME280;3928;42.626;23.382;2023-06-22T04:00:51;94667.16;;;22.66;73.91
7768;BME280;3928;42.626;23.382;2023-06-22T04:03:20;94666.53;;;22.77;73.36
7768;BME280;3928;42.626;23.382;2023-06-22T04:05:47;94677.78;;;22.93;72.76
7768;BME280;3928;42.626;23.382;2023-06-22T04:08:14;94675.19;;;23.08;71.53
7768;BME280;3928;42.626;23.382;2023-06-22T04:10:41;94671.06;;;22.89;70.60
7768;BME280;3928;42.626;23.382;2023-06-22T04:13:08;94681.19;;;22.80;71.88
7768;BME280;3928;42.626;23.382;2023-06-22T04:15:35;94672.78;;;22.74;71.73
7768;BME280;3928;42.626;23.382;2023-06-22T04:18:01;94672.59;;;22.77;72.04
7768;BME280;3928;42.626;23.382;2023-06-22T04:20:31;94671.00;;;22.75;71.86
7768;BME280;3928;42.626;23.382;2023-06-22T04:22:58;94671.00;;;22.75;71.99
7768;BME280;3928;42.626;23.382;2023-06-22T04:25:25;94673.03;;;22.86;72.17
7768;BME280;3928;42.626;23.382;2023-06-22T04:27:51;94655.81;;;22.96;72.00
7768;BME280;3928;42.626;23.382;2023-06-22T04:30:18;94658.09;;;23.02;71.63
7768;BME280;3928;42.626;23.382;2023-06-22T04:32:45;94660.72;;;23.02;72.48
7768;BME280;3928;42.626;23.382;2023-06-22T04:35:23;94648.38;;;23.04;72.84
7768;BME280;3928;42.626;23.382;2023-06-22T04:37:53;94646.88;;;23.14;72.38
7768;BME280;3928;42.626;23.382;2023-06-22T04:40:21;94642.38;;;22.88;74.67
7768;BME280;3928;42.626;23.382;2023-06-22T04:42:48;94641.34;;;22.90;75.70
7768;BME280;3928;42.626;23.382;2023-06-22T04:45:18;94640.13;;;22.96;75.69
7768;BME280;3928;42.626;23.382;2023-06-22T04:47:45;94640.31;;;22.93;75.99
7768;BME280;3928;42.626;23.382;2023-06-22T04:50:12;94641.63;;;22.86;76.24
7768;BME280;3928;42.626;23.382;2023-06-22T04:52:39;94639.91;;;22.85;76.08
7768;BME280;3928;42.626;23.382;2023-06-22T04:55:08;94629.44;;;22.85;76.34
7768;BME280;3928;42.626;23.382;2023-06-22T04:57:35;94643.44;;;23.14;76.01
7768;BME280;3928;42.626;23.382;2023-06-22T05:00:06;94655.50;;;23.30;75.22
7768;BME280;3928;42.626;23.382;2023-06-22T05:02:37;94655.88;;;23.53;75.53
7768;BME280;3928;42.626;23.382;2023-06-22T05:05:05;94662.44;;;23.74;74.69
7768;BME280;3928;42.626;23.382;2023-06-22T05:07:33;94666.25;;;23.97;73.45
7768;BME280;3928;42.626;23.382;2023-06-22T05:10:00;94674.72;;;24.15;72.05
7768;BME280;3928;42.626;23.382;2023-06-22T05:12:29;94675.63;;;24.28;70.85
7768;BME280;3928;42.626;23.382;2023-06-22T05:14:56;94656.94;;;24.47;70.25
7768;BME280;3928;42.626;23.382;2023-06-22T05:17:23;94645.53;;;24.61;69.25
7768;BME280;3928;42.626;23.382;2023-06-22T05:19:50;94659.44;;;24.75;69.38
7768;BME280;3928;42.626;23.382;2023-06-22T05:22:18;94663.56;;;24.92;69.10
7768;BME280;3928;42.626;23.382;2023-06-22T05:24:45;94640.53;;;24.96;68.02
7768;BME280;3928;42.626;23.382;2023-06-22T05:27:12;94659.31;;;25.17;67.69
7768;BME280;3928;42.626;23.382;2023-06-22T05:29:40;94670.66;;;25.30;66.65
7768;BME280;3928;42.626;23.382;2023-06-22T05:32:08;94677.47;;;25.45;66.43
7768;BME280;3928;42.626;23.382;2023-06-22T05:34:35;94660.44;;;25.51;66.35
7768;BME280;3928;42.626;23.382;2023-06-22T05:37:02;94682.53;;;25.74;65.68
7768;BME280;3928;42.626;23.382;2023-06-22T05:39:28;94688.13;;;25.82;64.08
7768;BME280;3928;42.626;23.382;2023-06-22T05:41:55;94695.13;;;25.94;63.24
7768;BME280;3928;42.626;23.382;2023-06-22T05:44:22;94693.31;;;26.07;63.14
7768;BME280;3928;42.626;23.382;2023-06-22T05:46:50;94694.34;;;26.17;63.55
7768;BME280;3928;42.626;23.382;2023-06-22T05:49:17;94703.56;;;26.23;63.34
7768;BME280;3928;42.626;23.382;2023-06-22T05:51:44;94702.63;;;26.37;63.24
7768;BME280;3928;42.626;23.382;2023-06-22T05:54:10;94707.44;;;26.43;63.57
7768;BME280;3928;42.626;23.382;2023-06-22T05:56:39;94702.09;;;26.32;63.01
7768;BME280;3928;42.626;23.382;2023-06-22T05:59:05;94688.94;;;25.95;63.33
7768;BME280;3928;42.626;23.382;2023-06-22T06:01:32;94706.63;;;25.93;65.15
7768;BME280;3928;42.626;23.382;2023-06-22T06:04:03;94691.75;;;26.05;65.72
7768;BME280;3928;42.626;23.382;2023-06-22T06:06:30;94692.44;;;26.19;64.63
7768;BME280;3928;42.626;23.382;2023-06-22T06:08:57;94698.72;;;26.30;63.89
7768;BME280;3928;42.626;23.382;2023-06-22T06:11:25;94696.69;;;26.09;63.61
7768;BME280;3928;42.626;23.382;2023-06-22T06:13:51;94689.97;;;26.05;63.64
7768;BME280;3928;42.626;23.382;2023-06-22T06:16:18;94689.47;;;26.24;63.12
7768;BME280;3928;42.626;23.382;2023-06-22T06:18:45;94694.53;;;26.14;63.63
7768;BME280;3928;42.626;23.382;2023-06-22T06:21:15;94682.94;;;26.30;63.61
7768;BME280;3928;42.626;23.382;2023-06-22T06:23:42;94679.72;;;26.50;62.92
7768;BME280;3928;42.626;23.382;2023-06-22T06:26:09;94684.13;;;26.73;65.31
7768;BME280;3928;42.626;23.382;2023-06-22T06:28:35;94680.81;;;26.83;64.25
7768;BME280;3928;42.626;23.382;2023-06-22T06:31:02;94644.44;;;26.76;64.10
7768;BME280;3928;42.626;23.382;2023-06-22T06:33:32;94683.13;;;27.22;64.18
7768;BME280;3928;42.626;23.382;2023-06-22T06:35:59;94680.63;;;27.32;63.35
7768;BME280;3928;42.626;23.382;2023-06-22T06:38:30;94685.78;;;26.98;62.82
7768;BME280;3928;42.626;23.382;2023-06-22T06:40:58;94690.00;;;27.01;63.76
7768;BME280;3928;42.626;23.382;2023-06-22T06:43:25;94683.34;;;27.19;62.57
7768;BME280;3928;42.626;23.382;2023-06-22T06:45:52;94680.75;;;27.30;62.36
7768;BME280;3928;42.626;23.382;2023-06-22T06:48:19;94670.72;;;27.58;62.40
7768;BME280;3928;42.626;23.382;2023-06-22T06:50:45;94671.84;;;27.78;61.87
7768;BME280;3928;42.626;23.382;2023-06-22T06:53:12;94672.78;;;27.99;60.94
7768;BME280;3928;42.626;23.382;2023-06-22T06:55:40;94673.09;;;28.17;59.40
7768;BME280;3928;42.626;23.382;2023-06-22T06:58:07;94676.00;;;28.36;59.36
7768;BME280;3928;42.626;23.382;2023-06-22T07:00:35;94650.28;;;28.49;59.34
7768;BME280;3928;42.626;23.382;2023-06-22T07:03:02;94665.78;;;28.75;57.72
7768;BME280;3928;42.626;23.382;2023-06-22T07:05:29;94665.63;;;28.88;56.79
7768;BME280;3928;42.626;23.382;2023-06-22T07:07:56;94656.19;;;29.06;56.38
7768;BME280;3928;42.626;23.382;2023-06-22T07:10:23;94660.28;;;28.99;54.91
7768;BME280;3928;42.626;23.382;2023-06-22T07:12:51;94656.13;;;28.96;55.41
7768;BME280;3928;42.626;23.382;2023-06-22T07:15:18;94669.91;;;29.00;55.64
7768;BME280;3928;42.626;23.382;2023-06-22T07:17:45;94669.59;;;28.93;55.80
7768;BME280;3928;42.626;23.382;2023-06-22T07:20:12;94667.50;;;28.97;56.20
7768;BME280;3928;42.626;23.382;2023-06-22T07:22:39;94664.56;;;28.90;55.69
7768;BME280;3928;42.626;23.382;2023-06-22T07:25:07;94669.72;;;29.12;56.64
7768;BME280;3928;42.626;23.382;2023-06-22T07:27:36;94667.94;;;29.13;56.95
7768;BME280;3928;42.626;23.382;2023-06-22T07:30:08;94659.81;;;29.26;56.15
7768;BME280;3928;42.626;23.382;2023-06-22T07:32:35;94659.91;;;29.45;55.70
7768;BME280;3928;42.626;23.382;2023-06-22T07:35:01;94662.97;;;29.61;54.22
7768;BME280;3928;42.626;23.382;2023-06-22T07:37:29;94664.00;;;29.80;54.14
7768;BME280;3928;42.626;23.382;2023-06-22T07:39:56;94660.28;;;29.92;53.94
7768;BME280;3928;42.626;23.382;2023-06-22T07:42:24;94664.03;;;30.10;53.67
7768;BME280;3928;42.626;23.382;2023-06-22T07:44:51;94667.81;;;30.27;52.60
7768;BME280;3928;42.626;23.382;2023-06-22T07:47:19;94668.81;;;30.36;51.81
7768;BME280;3928;42.626;23.382;2023-06-22T07:49:50;94669.69;;;30.46;52.06
7768;BME280;3928;42.626;23.382;2023-06-22T07:52:17;94665.78;;;30.60;51.66
7768;BME280;3928;42.626;23.382;2023-06-22T07:54:44;94668.34;;;30.71;51.11
7768;BME280;3928;42.626;23.382;2023-06-22T07:57:10;94675.75;;;30.87;51.00
7768;BME280;3928;42.626;23.382;2023-06-22T07:59:37;94668.47;;;30.98;50.72
7768;BME280;3928;42.626;23.382;2023-06-22T08:02:04;94643.09;;;30.96;49.33
7768;BME280;3928;42.626;23.382;2023-06-22T08:04:33;94639.31;;;31.08;48.25
7768;BME280;3928;42.626;23.382;2023-06-22T08:07:00;94656.75;;;31.39;48.70
7768;BME280;3928;42.626;23.382;2023-06-22T08:09:28;94655.00;;;31.58;47.04
7768;BME280;3928;42.626;23.382;2023-06-22T08:11:54;94651.78;;;31.64;44.91
7768;BME280;3928;42.626;23.382;2023-06-22T08:14:22;94649.69;;;31.77;43.72
7768;BME280;3928;42.626;23.382;2023-06-22T08:16:49;94659.81;;;31.91;44.07
7768;BME280;3928;42.626;23.382;2023-06-22T08:19:15;94605.56;;;31.76;44.67
7768;BME280;3928;42.626;23.382;2023-06-22T08:21:44;94656.19;;;31.92;42.57
7768;BME280;3928;42.626;23.382;2023-06-22T08:24:11;94653.63;;;32.00;43.70
7768;BME280;3928;42.626;23.382;2023-06-22T08:26:38;94645.19;;;31.87;42.51
7768;BME280;3928;42.626;23.382;2023-06-22T08:29:05;94640.28;;;31.73;41.99
7768;BME280;3928;42.626;23.382;2023-06-22T08:31:32;94646.03;;;31.68;42.80
7768;BME280;3928;42.626;23.382;2023-06-22T08:33:59;94624.97;;;31.67;44.51
7768;BME280;3928;42.626;23.382;2023-06-22T08:36:26;94626.34;;;31.81;46.39
7768;BME280;3928;42.626;23.382;2023-06-22T08:39:01;94638.47;;;31.83;44.60
7768;BME280;3928;42.626;23.382;2023-06-22T08:41:28;94629.41;;;31.86;45.31
7768;BME280;3928;42.626;23.382;2023-06-22T08:43:55;94643.78;;;31.83;45.01
7768;BME280;3928;42.626;23.382;2023-06-22T08:46:22;94647.16;;;31.85;44.78
7768;BME280;3928;42.626;23.382;2023-06-22T08:48:55;94652.31;;;31.87;44.10
7768;BME280;3928;42.626;23.382;2023-06-22T08:51:22;94643.41;;;31.78;44.40
7768;BME280;3928;42.626;23.382;2023-06-22T08:53:49;94645.59;;;31.83;44.90
7768;BME280;3928;42.626;23.382;2023-06-22T08:56:17;94645.75;;;31.81;46.04
7768;BME280;3928;42.626;23.382;2023-06-22T08:58:44;94645.22;;;31.78;44.26
7768;BME280;3928;42.626;23.382;2023-06-22T09:01:11;94646.44;;;31.83;44.54
7768;BME280;3928;42.626;23.382;2023-06-22T09:03:37;94637.03;;;31.98;45.55
7768;BME280;3928;42.626;23.382;2023-06-22T09:06:04;94635.19;;;32.26;44.68
7768;BME280;3928;42.626;23.382;2023-06-22T09:08:31;94635.53;;;32.41;44.02
7768;BME280;3928;42.626;23.382;2023-06-22T09:10:58;94633.06;;;32.57;43.51
7768;BME280;3928;42.626;23.382;2023-06-22T09:13:28;94628.41;;;32.77;43.13
7768;BME280;3928;42.626;23.382;2023-06-22T09:15:54;94635.28;;;32.80;43.51
7768;BME280;3928;42.626;23.382;2023-06-22T09:18:21;94632.78;;;32.96;42.95
7768;BME280;3928;42.626;23.382;2023-06-22T09:20:48;94608.41;;;32.83;42.63
7768;BME280;3928;42.626;23.382;2023-06-22T09:23:15;94633.22;;;33.09;42.21
7768;BME280;3928;42.626;23.382;2023-06-22T09:25:42;94630.00;;;33.24;42.11
7768;BME280;3928;42.626;23.382;2023-06-22T09:28:09;94627.03;;;33.44;40.64
7768;BME280;3928;42.626;23.382;2023-06-22T09:30:37;94622.34;;;33.64;40.49
7768;BME280;3928;42.626;23.382;2023-06-22T09:33:04;94619.41;;;33.76;40.78
7768;BME280;3928;42.626;23.382;2023-06-22T09:35:31;94627.66;;;33.90;37.70
7768;BME280;3928;42.626;23.382;2023-06-22T09:37:57;94636.53;;;34.07;37.78
7768;BME280;3928;42.626;23.382;2023-06-22T09:40:24;94621.38;;;34.08;37.95
7768;BME280;3928;42.626;23.382;2023-06-22T09:42:51;94632.28;;;34.30;38.72
7768;BME280;3928;42.626;23.382;2023-06-22T09:45:18;94636.69;;;34.40;37.88
7768;BME280;3928;42.626;23.382;2023-06-22T09:47:46;94630.38;;;34.57;36.99
7768;BME280;3928;42.626;23.382;2023-06-22T09:50:13;94638.25;;;34.75;37.14
7768;BME280;3928;42.626;23.382;2023-06-22T09:52:40;94627.78;;;34.90;35.96
7768;BME280;3928;42.626;23.382;2023-06-22T09:55:10;94629.31;;;35.08;35.81
7768;BME280;3928;42.626;23.382;2023-06-22T09:57:37;94630.47;;;35.22;35.31
7768;BME280;3928;42.626;23.382;2023-06-22T10:00:04;94628.16;;;34.95;32.88
7768;BME280;3928;42.626;23.382;2023-06-22T10:02:34;94615.41;;;34.64;32.45
7768;BME280;3928;42.626;23.382;2023-06-22T10:05:02;94618.91;;;34.81;33.51
7768;BME280;3928;42.626;23.382;2023-06-22T10:07:29;94604.94;;;34.71;32.30
7768;BME280;3928;42.626;23.382;2023-06-22T10:09:56;94614.75;;;34.20;32.56
7768;BME280;3928;42.626;23.382;2023-06-22T10:12:23;94608.59;;;34.11;33.16
7768;BME280;3928;42.626;23.382;2023-06-22T10:14:49;94599.31;;;34.31;32.55
7768;BME280;3928;42.626;23.382;2023-06-22T10:17:16;94611.75;;;34.73;33.90
7768;BME280;3928;42.626;23.382;2023-06-22T10:19:43;94613.47;;;34.99;33.31
7768;BME280;3928;42.626;23.382;2023-06-22T10:22:11;94608.28;;;35.22;32.91
7768;BME280;3928;42.626;23.382;2023-06-22T10:24:38;94615.81;;;35.42;32.92
7768;BME280;3928;42.626;23.382;2023-06-22T10:27:09;94599.41;;;35.62;32.94
7768;BME280;3928;42.626;23.382;2023-06-22T10:29:36;94613.03;;;35.83;32.07
7768;BME280;3928;42.626;23.382;2023-06-22T10:32:04;94613.50;;;36.03;31.28
7768;BME280;3928;42.626;23.382;2023-06-22T10:34:31;94608.91;;;36.20;31.28
7768;BME280;3928;42.626;23.382;2023-06-22T10:36:58;94603.19;;;36.31;30.49
7768;BME280;3928;42.626;23.382;2023-06-22T10:39:26;94587.50;;;36.36;31.00
7768;BME280;3928;42.626;23.382;2023-06-22T10:41:53;94594.44;;;36.45;30.57
7768;BME280;3928;42.626;23.382;2023-06-22T10:44:20;94599.38;;;36.56;30.15
7768;BME280;3928;42.626;23.382;2023-06-22T10:46:47;94590.72;;;36.54;28.63
7768;BME280;3928;42.626;23.382;2023-06-22T10:49:14;94580.84;;;36.24;29.19
7768;BME280;3928;42.626;23.382;2023-06-22T10:51:41;94570.41;;;36.06;29.91
7768;BME280;3928;42.626;23.382;2023-06-22T10:54:08;94601.53;;;36.22;29.33
7768;BME280;3928;42.626;23.382;2023-06-22T10:56:36;94596.25;;;35.50;29.66
7768;BME280;3928;42.626;23.382;2023-06-22T10:59:02;94587.72;;;35.63;29.84
7768;BME280;3928;42.626;23.382;2023-06-22T11:01:29;94591.09;;;35.32;30.13
7768;BME280;3928;42.626;23.382;2023-06-22T11:03:58;94578.44;;;35.02;31.32
7768;BME280;3928;42.626;23.382;2023-06-22T11:06:25;94586.94;;;35.22;31.39
7768;BME280;3928;42.626;23.382;2023-06-22T11:08:52;94583.09;;;35.16;30.33
7768;BME280;3928;42.626;23.382;2023-06-22T11:11:19;94585.28;;;35.37;31.68
7768;BME280;3928;42.626;23.382;2023-06-22T11:13:47;94579.41;;;35.50;32.35
7768;BME280;3928;42.626;23.382;2023-06-22T11:16:14;94590.38;;;35.63;31.11
7768;BME280;3928;42.626;23.382;2023-06-22T11:18:41;94574.66;;;35.92;30.82
7768;BME280;3928;42.626;23.382;2023-06-22T11:21:08;94577.84;;;36.19;32.00
7768;BME280;3928;42.626;23.382;2023-06-22T11:23:34;94578.47;;;36.37;29.66
7768;BME280;3928;42.626;23.382;2023-06-22T11:26:01;94572.53;;;36.50;30.75
7768;BME280;3928;42.626;23.382;2023-06-22T11:28:28;94571.94;;;36.63;31.71
7768;BME280;3928;42.626;23.382;2023-06-22T11:30:56;94570.69;;;36.73;29.07
7768;BME280;3928;42.626;23.382;2023-06-22T11:33:23;94560.34;;;36.70;30.13
7768;BME280;3928;42.626;23.382;2023-06-22T11:35:50;94555.75;;;36.87;31.49
7768;BME280;3928;42.626;23.382;2023-06-22T11:38:17;94564.94;;;37.07;31.17
7768;BME280;3928;42.626;23.382;2023-06-22T11:40:44;94564.78;;;37.24;30.39
7768;BME280;3928;42.626;23.382;2023-06-22T11:43:10;94565.84;;;37.37;30.82
7768;BME280;3928;42.626;23.382;2023-06-22T11:45:37;94560.28;;;37.39;30.73
7768;BME280;3928;42.626;23.382;2023-06-22T11:48:05;94556.72;;;37.32;31.06
7768;BME280;3928;42.626;23.382;2023-06-22T11:50:32;94557.34;;;37.34;29.85
7768;BME280;3928;42.626;23.382;2023-06-22T11:53:01;94550.00;;;37.28;28.08
7768;BME280;3928;42.626;23.382;2023-06-22T11:55:28;94540.16;;;37.28;28.65
7768;BME280;3928;42.626;23.382;2023-06-22T11:57:56;94539.28;;;37.28;29.07
7768;BME280;3928;42.626;23.382;2023-06-22T12:00:25;94525.03;;;37.35;30.50
7768;BME280;3928;42.626;23.382;2023-06-22T12:02:52;94529.94;;;37.61;29.87
7768;BME280;3928;42.626;23.382;2023-06-22T12:05:20;94538.72;;;37.70;29.41
7768;BME280;3928;42.626;23.382;2023-06-22T12:07:48;94546.94;;;37.68;30.11
7768;BME280;3928;42.626;23.382;2023-06-22T12:10:15;94538.91;;;37.68;29.52
7768;BME280;3928;42.626;23.382;2023-06-22T12:12:43;94542.50;;;37.75;29.76
7768;BME280;3928;42.626;23.382;2023-06-22T12:15:10;94481.00;;;37.38;29.98
7768;BME280;3928;42.626;23.382;2023-06-22T12:17:37;94525.50;;;37.68;28.84
7768;BME280;3928;42.626;23.382;2023-06-22T12:20:05;94546.94;;;37.68;29.72
7768;BME280;3928;42.626;23.382;2023-06-22T12:22:35;94555.50;;;37.34;28.41
7768;BME280;3928;42.626;23.382;2023-06-22T12:25:03;94564.53;;;36.73;31.06
7768;BME280;3928;42.626;23.382;2023-06-22T12:27:30;94562.09;;;36.01;33.02
7768;BME280;3928;42.626;23.382;2023-06-22T12:29:57;94574.59;;;35.53;34.30
7768;BME280;3928;42.626;23.382;2023-06-22T12:32:24;94563.75;;;34.73;35.36
7768;BME280;3928;42.626;23.382;2023-06-22T12:34:51;94566.34;;;34.33;37.69
7768;BME280;3928;42.626;23.382;2023-06-22T12:37:17;94572.66;;;33.81;37.94
7768;BME280;3928;42.626;23.382;2023-06-22T12:39:46;94578.78;;;33.22;39.58
7768;BME280;3928;42.626;23.382;2023-06-22T12:42:12;94592.44;;;32.65;42.00
7768;BME280;3928;42.626;23.382;2023-06-22T12:44:39;94607.53;;;31.74;44.72
7768;BME280;3928;42.626;23.382;2023-06-22T12:47:06;94608.41;;;31.46;46.96
7768;BME280;3928;42.626;23.382;2023-06-22T12:49:34;94618.25;;;31.16;50.96
7768;BME280;3928;42.626;23.382;2023-06-22T12:52:01;94623.09;;;30.53;54.00
7768;BME280;3928;42.626;23.382;2023-06-22T12:54:28;94628.28;;;29.13;61.16
7768;BME280;3928;42.626;23.382;2023-06-22T12:56:56;94632.00;;;28.58;62.86
7768;BME280;3928;42.626;23.382;2023-06-22T12:59:23;94630.16;;;28.37;64.09
7768;BME280;3928;42.626;23.382;2023-06-22T13:01:49;94632.84;;;27.70;67.27
7768;BME280;3928;42.626;23.382;2023-06-22T13:04:17;94644.81;;;27.41;69.04
7768;BME280;3928;42.626;23.382;2023-06-22T13:06:44;94649.97;;;27.42;70.98
7768;BME280;3928;42.626;23.382;2023-06-22T13:09:13;94642.91;;;26.96;72.61
7768;BME280;3928;42.626;23.382;2023-06-22T13:11:40;94638.31;;;26.52;77.21